Time;durP1;ratioP1;P1;durP2;ratioP2;P2;SDS_P1;SDS_P2;PMS_P1;PMS_P2;Temp;Humidity;BMP_temperature;BMP_pressure;BME280_temperature;BME280_humidity;BME280_pressure;Samples;Min_cycle;Max_cycle;Signal;HPM_P1;HPM_P2
2022/05/13 00:05:36;;;;;;;10.90;7.03;;;;;;;15.61;99.65;100696.97;1693117;84;21611;-85
2022/05/13 00:08:05;;;;;;;14.03;7.83;;;;;;;15.57;100.00;100692.97;1692459;84;21075;-84
2022/05/13 00:10:34;;;;;;;14.83;7.30;;;;;;;15.55;100.00;100691.47;1693409;83;21044;-84
2022/05/13 00:13:04;;;;;;;13.30;7.30;;;;;;;15.52;100.00;100695.69;1694018;83;21144;-83
2022/05/13 00:16:09;;;;;;;14.23;7.37;;;;;;;15.51;100.00;100699.27;1693111;84;21031;-83
2022/05/13 00:18:37;;;;;;;11.83;6.62;;;;;;;15.51;100.00;100695.34;1693773;84;21032;-83
2022/05/13 00:22:12;;;;;;;10.72;6.55;;;;;;;15.49;100.00;100705.98;1693417;83;21019;-83
2022/05/13 00:24:41;;;;;;;13.35;6.53;;;;;;;15.48;100.00;100702.20;1693434;83;21003;-83
2022/05/13 00:27:12;;;;;;;13.03;7.35;;;;;;;15.46;100.00;100706.30;1694149;83;21155;-84
2022/05/13 00:30:10;;;;;;;16.67;7.78;;;;;;;15.45;100.00;100705.45;1693407;83;21063;-83
2022/05/13 00:32:41;;;;;;;20.23;9.00;;;;;;;15.46;100.00;100708.92;1693753;84;21647;-83
2022/05/13 00:35:38;;;;;;;18.55;8.80;;;;;;;15.45;100.00;100708.58;1692981;84;38077;-84
2022/05/13 00:38:05;;;;;;;15.55;9.15;;;;;;;15.44;100.00;100701.17;1693301;83;21023;-82
2022/05/13 00:40:34;;;;;;;20.17;10.82;;;;;;;15.43;100.00;100712.64;1693492;83;21071;-81
2022/05/13 00:43:05;;;;;;;23.57;10.00;;;;;;;15.43;100.00;100725.76;1693040;83;21036;-81
2022/05/13 00:45:33;;;;;;;16.37;9.73;;;;;;;15.42;100.00;100712.30;1692896;84;21098;-81
2022/05/13 00:48:01;;;;;;;18.73;10.75;;;;;;;15.41;100.00;100722.47;1692885;83;21032;-81
2022/05/13 00:50:32;;;;;;;19.02;10.15;;;;;;;15.41;100.00;100722.47;1692825;83;21133;-83
2022/05/13 00:53:00;;;;;;;18.23;10.72;;;;;;;15.38;100.00;100726.69;1693088;84;21906;-82
2022/05/13 00:55:35;;;;;;;22.30;11.08;;;;;;;15.36;100.00;100716.81;1692275;84;21051;-82
2022/05/13 00:58:06;;;;;;;19.42;11.45;;;;;;;15.36;100.00;100708.13;1690872;84;21034;-83
2022/05/13 01:00:34;;;;;;;22.15;11.83;;;;;;;15.36;100.00;100705.50;1687762;84;21031;-83
2022/05/13 01:03:01;;;;;;;21.73;12.98;;;;;;;15.39;100.00;100708.66;1690127;84;21094;-82
2022/05/13 01:05:32;;;;;;;20.72;12.70;;;;;;;15.40;100.00;100706.39;1656754;85;21162;-81
2022/05/13 01:08:06;;;;;;;23.07;12.23;;;;;;;15.42;100.00;100707.55;1690060;84;21051;-81
2022/05/13 01:10:41;;;;;;;24.50;11.70;;;;;;;15.42;100.00;100707.55;1691019;84;21580;-81
2022/05/13 01:13:14;;;;;;;21.87;11.12;;;;;;;15.42;100.00;100705.73;1657475;85;21094;-82
2022/05/13 01:15:51;;;;;;;19.50;10.60;;;;;;;15.42;100.00;100704.42;1698174;84;21051;-81
2022/05/13 01:18:33;;;;;;;18.42;10.10;;;;;;;15.43;100.00;100703.95;1700906;84;21133;-87
2022/05/13 01:21:06;;;;;;;17.85;9.70;;;;;;;15.43;100.00;100700.83;1657404;85;21047;-81
2022/05/13 01:28:11;;;;;;;14.80;8.63;;;;;;;15.42;100.00;100695.23;1701111;83;21063;-82
2022/05/13 01:30:45;;;;;;;11.97;8.08;;;;;;;15.42;100.00;100691.30;1700215;83;20956;-81
2022/05/13 01:33:14;;;;;;;17.42;9.50;;;;;;;15.42;100.00;100682.12;1700831;84;21277;-81
2022/05/13 01:35:51;;;;;;;17.20;10.20;;;;;;;15.43;100.00;100681.65;1700696;83;21098;-82
2022/05/13 01:38:23;;;;;;;17.85;10.32;;;;;;;15.41;100.00;100672.62;1701090;83;21079;-83
2022/05/13 01:49:14;;;;;;;14.55;9.80;;;;;;;15.39;100.00;100691.61;1700863;83;21226;-83
2022/05/13 01:51:42;;;;;;;17.98;8.40;;;;;;;15.39;100.00;100701.27;1680907;84;21505;-82
2022/05/13 01:54:09;;;;;;;18.00;9.38;;;;;;;15.37;100.00;100704.04;1700986;83;21094;-82
2022/05/13 01:56:37;;;;;;;16.10;8.90;;;;;;;15.37;100.00;100707.97;1700855;83;21549;-82
2022/05/13 01:59:05;;;;;;;11.95;8.00;;;;;;;15.34;100.00;100708.28;1701189;84;21098;-82
2022/05/13 02:01:34;;;;;;;12.50;7.85;;;;;;;15.31;100.00;100707.25;1701050;83;21159;-82
2022/05/13 02:04:01;;;;;;;11.78;8.03;;;;;;;15.28;100.00;100698.34;1700989;83;21442;-83
2022/05/13 02:06:31;;;;;;;12.93;8.00;;;;;;;15.24;100.00;100711.42;1701097;83;21043;-82
2022/05/13 02:08:59;;;;;;;13.18;8.10;;;;;;;15.17;100.00;100709.84;1701123;83;21023;-82
2022/05/13 02:11:31;;;;;;;11.55;7.35;;;;;;;15.10;100.00;100704.33;1700499;83;20963;-83
2022/05/13 02:13:59;;;;;;;13.72;8.33;;;;;;;15.07;100.00;100700.70;1693331;84;21150;-84
2022/05/13 02:16:26;;;;;;;13.83;7.72;;;;;;;15.08;100.00;100689.72;1693095;84;21565;-83
2022/05/13 02:18:55;;;;;;;10.15;6.83;;;;;;;15.08;100.00;100689.72;1693426;83;21417;-84
2022/05/13 02:21:22;;;;;;;10.15;6.45;;;;;;;15.07;100.00;100683.66;1693198;83;21055;-82
2022/05/13 02:28:06;;;;;;;7.67;5.42;;;;;;;14.97;100.00;100656.16;1692997;84;21067;-82
2022/05/13 02:30:34;;;;;;;10.65;5.65;;;;;;;14.80;100.00;100662.95;1693283;84;21050;-83
2022/05/13 02:33:02;;;;;;;6.17;5.30;;;;;;;14.76;100.00;100677.33;1692834;84;21040;-82
2022/05/13 02:35:29;;;;;;;9.38;5.58;;;;;;;14.73;100.00;100684.15;1692711;83;20976;-81
2022/05/13 02:37:56;;;;;;;7.50;5.10;;;;;;;14.70;100.00;100677.90;1693389;83;21508;-82
2022/05/13 02:41:14;;;;;;;8.05;5.05;;;;;;;14.67;100.00;100689.46;1693286;84;21876;-82
2022/05/13 02:44:37;;;;;;;8.75;5.33;;;;;;;14.66;100.00;100697.48;1693621;83;21113;-82
2022/05/13 02:47:04;;;;;;;7.70;5.45;;;;;;;14.64;100.00;100684.49;1693109;83;21043;-84
2022/05/13 02:49:32;;;;;;;8.75;5.30;;;;;;;14.66;100.00;100681.25;1693303;83;21050;-81
2022/05/13 02:52:00;;;;;;;7.12;5.20;;;;;;;14.69;100.00;100691.13;1693020;83;21098;-82
2022/05/13 02:54:27;;;;;;;6.37;4.80;;;;;;;14.73;100.00;100701.19;1693386;83;22409;-83
2022/05/13 02:56:56;;;;;;;10.00;5.65;;;;;;;14.77;100.00;100701.27;1693281;84;21027;-82
2022/05/13 02:59:24;;;;;;;9.98;5.60;;;;;;;14.83;100.00;100695.45;1692995;83;21011;-82
2022/05/13 03:01:54;;;;;;;7.55;4.97;;;;;;;14.90;100.00;100692.25;1693706;84;21043;-82
2022/05/13 03:04:21;;;;;;;9.03;4.80;;;;;;;14.95;100.00;100697.89;1693148;83;21094;-82
2022/05/13 03:06:48;;;;;;;9.55;4.85;;;;;;;14.98;100.00;100715.47;1692322;84;21167;-88
2022/05/13 03:09:16;;;;;;;8.98;5.40;;;;;;;15.05;100.00;100723.61;1692429;84;21054;-88
2022/05/13 03:11:45;;;;;;;6.55;5.22;;;;;;;15.11;100.00;100722.22;1692616;84;21138;-82
2022/05/13 03:14:12;;;;;;;10.15;4.95;;;;;;;15.17;100.00;100722.95;1692610;83;21027;-82
2022/05/13 03:16:40;;;;;;;10.15;4.90;;;;;;;15.23;100.00;100729.44;1692989;83;21074;-83
2022/05/13 03:19:07;;;;;;;12.88;5.37;;;;;;;15.29;100.00;100735.41;1693030;84;21153;-83
2022/05/13 03:21:43;;;;;;;7.00;5.08;;;;;;;15.33;100.00;100734.64;1693156;83;21011;-84
2022/05/13 03:24:50;;;;;;;7.45;5.40;;;;;;;15.36;100.00;100737.80;1693362;83;21075;-84
2022/05/13 03:27:19;;;;;;;6.87;5.22;;;;;;;15.39;100.00;100728.34;1694556;83;21046;-84
2022/05/13 03:29:46;;;;;;;10.10;5.28;;;;;;;15.40;100.00;100727.38;1693288;84;21066;-84
2022/05/13 03:32:41;;;;;;;7.87;5.87;;;;;;;15.40;100.00;100738.34;1693627;83;21131;-83
2022/05/13 03:35:12;;;;;;;8.30;5.70;;;;;;;15.42;100.00;100742.97;1693122;83;21125;-82
2022/05/13 03:37:39;;;;;;;9.23;5.55;;;;;;;15.45;100.00;100743.50;1674121;83;21083;-83
2022/05/13 03:40:07;;;;;;;9.60;5.37;;;;;;;15.49;100.00;100745.85;1721610;82;21083;-83
2022/05/13 03:42:37;;;;;;;9.23;5.15;;;;;;;15.54;100.00;100758.05;1711627;82;20992;-83
2022/05/13 03:45:13;;;;;;;7.40;5.60;;;;;;;15.58;100.00;100760.23;1675661;83;21540;-82
2022/05/13 03:48:09;;;;;;;8.15;5.35;;;;;;;15.64;100.00;100768.02;1707176;83;21066;-83
2022/05/13 03:50:40;;;;;;;11.48;5.50;;;;;;;15.71;100.00;100762.53;1675215;83;21145;-84
2022/05/13 03:53:14;;;;;;;9.18;6.60;;;;;;;15.80;100.00;100765.25;1707496;82;21089;-84
2022/05/13 03:55:42;;;;;;;9.50;6.55;;;;;;;15.86;100.00;100770.79;1675521;84;20970;-84
2022/05/13 03:58:10;;;;;;;10.13;6.92;;;;;;;15.90;100.00;100772.64;1707390;84;21816;-83
2022/05/13 04:00:38;;;;;;;10.65;8.25;;;;;;;15.92;100.00;100775.45;1675430;83;21544;-85
2022/05/13 04:03:06;;;;;;;9.50;7.25;;;;;;;15.96;100.00;100777.30;1707648;83;21528;-83
2022/05/13 04:11:07;;;;;;;15.18;9.05;;;;;;;16.13;100.00;100790.61;1675511;83;21150;-84
2022/05/13 04:16:20;;;;;;;11.25;7.97;;;;;;;16.28;100.00;100792.23;1725052;81;21981;-83
2022/05/13 04:18:50;;;;;;;9.40;6.87;;;;;;;16.36;100.00;100793.63;1725356;81;21039;-85
2022/05/13 04:21:29;;;;;;;13.10;7.12;;;;;;;16.40;100.00;100801.06;1725172;83;21074;-83
2022/05/13 04:24:01;;;;;;;8.75;6.50;;;;;;;16.45;100.00;100802.44;1725657;81;21118;-83
2022/05/13 04:27:05;;;;;;;10.20;7.90;;;;;;;16.47;100.00;100799.98;1688270;83;21053;-82
2022/05/13 04:30:05;;;;;;;9.58;7.62;;;;;;;16.51;100.00;100807.09;1692869;83;21569;-82
2022/05/13 04:32:32;;;;;;;11.95;7.17;;;;;;;16.55;100.00;100811.05;1688770;83;21140;-83
2022/05/13 04:35:01;;;;;;;13.60;8.13;;;;;;;16.60;100.00;100810.14;1692991;83;21756;-83
2022/05/13 04:37:28;;;;;;;11.85;7.45;;;;;;;16.68;100.00;100816.78;1692784;83;21134;-88
2022/05/13 04:39:57;;;;;;;11.20;8.05;;;;;;;16.80;100.00;100817.85;1692752;83;21080;-84
2022/05/13 04:45:11;;;;;;;16.37;8.53;;;;;;;17.06;100.00;100819.73;1692777;83;21574;-83
2022/05/13 04:50:24;;;;;;;12.53;8.75;;;;;;;17.07;100.00;100816.13;1693113;83;21131;-87
2022/05/13 04:52:53;;;;;;;19.05;9.50;;;;;;;17.01;100.00;100811.83;1692663;83;21033;-88
2022/05/13 04:55:20;;;;;;;14.78;9.15;;;;;;;17.00;100.00;100815.91;1692736;83;21084;-85
2022/05/13 04:57:47;;;;;;;18.45;10.08;;;;;;;16.97;100.00;100818.36;1717463;82;21035;-84
2022/05/13 05:00:16;;;;;;;11.95;9.55;;;;;;;16.95;100.00;100813.73;1725309;81;21321;-84
2022/05/13 05:02:48;;;;;;;15.25;10.43;;;;;;;16.96;100.00;100812.76;1688187;83;21614;-83
2022/05/13 05:05:18;;;;;;;15.63;10.20;;;;;;;17.09;100.00;100819.45;1725237;81;21047;-83
2022/05/13 05:07:50;;;;;;;17.67;10.75;;;;;;;17.26;100.00;100817.27;1725196;81;20998;-83
2022/05/13 05:10:21;;;;;;;13.50;10.30;;;;;;;17.50;100.00;100829.74;1727721;81;21561;-84
2022/05/13 05:12:56;;;;;;;18.10;10.55;;;;;;;17.73;100.00;100827.08;1727921;83;21749;-83
2022/05/13 05:15:25;;;;;;;13.80;9.25;;;;;;;17.91;100.00;100821.20;1719782;82;21264;-83
2022/05/13 05:17:55;;;;;;;12.78;9.63;;;;;;;18.12;100.00;100826.09;1651899;84;21055;-82
2022/05/13 05:20:51;;;;;;;13.08;7.78;;;;;;;18.23;100.00;100827.60;1721626;82;21011;-82
2022/05/13 05:23:27;;;;;;;16.17;9.68;;;;;;;18.28;100.00;100829.28;1721657;82;21050;-88
2022/05/13 05:25:56;;;;;;;15.68;9.70;;;;;;;18.34;100.00;100826.98;1721709;82;21012;-84
2022/05/13 05:28:28;;;;;;;13.85;8.80;;;;;;;18.39;100.00;100837.37;1721614;82;21311;-84
2022/05/13 05:31:00;;;;;;;13.25;8.63;;;;;;;18.44;100.00;100836.89;1721901;83;21007;-85
2022/05/13 05:33:29;;;;;;;11.80;7.95;;;;;;;18.50;100.00;100830.97;1721846;82;21039;-87
2022/05/13 05:35:56;;;;;;;11.12;6.97;;;;;;;18.63;100.00;100829.69;1702847;82;21722;-83
2022/05/13 05:38:23;;;;;;;9.65;6.55;;;;;;;18.72;100.00;100841.86;1722052;82;21110;-83
2022/05/13 05:40:50;;;;;;;10.78;6.28;;;;;;;18.80;100.00;100838.42;1721622;82;21125;-84
2022/05/13 05:43:18;;;;;;;9.03;5.92;;;;;;;18.89;100.00;100839.57;1716374;83;21090;-82
2022/05/13 05:45:46;;;;;;;11.40;6.40;;;;;;;18.97;100.00;100840.59;1674926;83;21011;-82
2022/05/13 05:48:21;;;;;;;8.13;6.15;;;;;;;19.03;100.00;100843.41;1674898;83;21082;-83
2022/05/13 05:50:46;;;;;;;8.83;5.72;;;;;;;19.14;100.00;100841.42;1672115;83;21689;-83
2022/05/13 05:53:14;;;;;;;6.75;4.90;;;;;;;19.27;100.00;100838.28;1652265;85;21817;-87
2022/05/13 05:58:27;;;;;;;6.67;4.35;;;;;;;19.44;100.00;100828.50;1721662;82;21000;-84
2022/05/13 06:00:54;;;;;;;6.47;4.30;;;;;;;19.49;100.00;100835.41;1729394;82;21047;-82
2022/05/13 06:03:21;;;;;;;4.72;4.33;;;;;;;19.54;100.00;100836.56;1728904;82;21074;-83
2022/05/13 06:05:53;;;;;;;4.87;4.25;;;;;;;19.58;100.00;100828.31;1716573;82;21193;-85
2022/05/13 06:08:21;;;;;;;8.88;4.72;;;;;;;19.62;100.00;100838.85;1704187;83;21008;-85
2022/05/13 06:10:49;;;;;;;6.65;4.87;;;;;;;19.65;100.00;100841.16;1710915;83;21101;-84
2022/05/13 06:13:16;;;;;;;6.12;4.60;;;;;;;19.62;100.00;100835.73;1698538;83;21097;-84
2022/05/13 06:15:43;;;;;;;6.75;4.35;;;;;;;19.68;100.00;100833.72;1700030;84;21679;-84
2022/05/13 06:18:10;;;;;;;6.97;4.67;;;;;;;19.80;100.00;100828.89;1692154;84;21140;-84
2022/05/13 06:20:38;;;;;;;7.28;4.72;;;;;;;19.97;100.00;100836.27;1691122;84;21016;-85
2022/05/13 06:23:05;;;;;;;5.40;4.72;;;;;;;20.10;100.00;100840.20;1691572;83;21121;-83
2022/05/13 06:25:32;;;;;;;5.20;4.60;;;;;;;20.21;100.00;100837.66;1692784;83;21571;-85
2022/05/13 06:28:01;;;;;;;9.28;4.97;;;;;;;20.31;100.00;100843.56;1693141;83;21035;-85
2022/05/13 06:30:32;;;;;;;4.75;4.25;;;;;;;20.40;100.00;100836.39;1673520;83;21950;-86
2022/05/13 06:33:02;;;;;;;;;;;;;;;20.48;100.00;100833.19;1695294;83;21558;-84
2022/05/13 06:35:33;;;;;;;6.20;5.12;;;;;;;20.59;100.00;100839.08;1693286;83;20169;-85
2022/05/13 06:38:01;;;;;;;6.50;4.17;;;;;;;20.74;100.00;100843.14;1693529;82;21063;-84
2022/05/13 06:40:28;;;;;;;6.03;3.83;;;;;;;20.83;100.00;100832.80;1692295;83;21141;-85
2022/05/13 06:42:55;;;;;;;6.47;4.50;;;;;;;20.90;100.00;100834.23;1667232;84;21147;-88
2022/05/13 06:45:25;;;;;;;5.42;4.03;;;;;;;20.98;100.00;100836.81;1661455;84;21049;-84
2022/05/13 06:47:52;;;;;;;8.55;4.50;;;;;;;21.03;100.00;100833.64;1664928;84;21578;-84
2022/05/13 06:50:21;;;;;;;5.33;3.95;;;;;;;21.05;100.00;100833.77;1664416;84;21018;-84
2022/05/13 06:52:48;;;;;;;8.25;4.45;;;;;;;21.08;100.00;100832.11;1665772;84;21085;-86
2022/05/13 06:55:18;;;;;;;5.17;4.28;;;;;;;21.11;100.00;100829.59;1665799;83;22049;-85
2022/05/13 06:57:46;;;;;;;7.45;4.03;;;;;;;21.16;100.00;100828.54;1665046;84;21038;-85
2022/05/13 07:00:14;;;;;;;8.20;4.10;;;;;;;21.23;100.00;100824.17;1682739;83;21074;-85
2022/05/13 07:02:41;;;;;;;4.37;3.55;;;;;;;21.40;100.00;100823.52;1692416;83;21689;-85
2022/05/13 07:05:12;;;;;;;5.22;3.72;;;;;;;21.63;100.00;100819.17;1693469;83;21113;-84
2022/05/13 07:07:41;;;;;;;4.12;3.65;;;;;;;21.80;100.00;100813.16;1692390;83;21618;-84
2022/05/13 07:10:09;;;;;;;4.35;3.67;;;;;;;21.92;100.00;100819.63;1693257;83;21007;-85
2022/05/13 07:12:37;;;;;;;8.13;3.95;;;;;;;22.03;99.34;100814.37;1692827;83;21524;-85
2022/05/13 07:15:11;;;;;;;5.00;4.10;;;;;;;22.10;100.00;100811.77;1693365;83;21098;-84
2022/05/13 07:17:43;;;;;;;6.50;3.62;;;;;;;22.14;91.37;100810.41;1674244;83;21073;-85
2022/05/13 07:20:16;;;;;;;6.03;3.72;;;;;;;22.12;99.22;100811.09;1688404;83;21477;-89
2022/05/13 07:22:44;;;;;;;5.28;3.83;;;;;;;22.13;98.77;100818.84;1697191;83;21162;-84
2022/05/13 07:25:12;;;;;;;4.17;3.75;;;;;;;22.20;96.37;100807.80;1721342;82;21616;-85
2022/05/13 07:27:39;;;;;;;7.40;4.22;;;;;;;22.32;100.00;100811.30;1721371;83;21114;-85
2022/05/13 07:30:08;;;;;;;6.47;3.60;;;;;;;22.43;96.25;100812.66;1721586;82;21091;-85
2022/05/13 07:32:39;;;;;;;5.47;3.72;;;;;;;22.46;89.84;100812.30;1721252;82;21174;-84
2022/05/13 07:35:08;;;;;;;8.83;4.30;;;;;;;22.45;100.00;100812.78;1721276;83;21011;-84
2022/05/13 07:37:38;;;;;;;5.08;4.03;;;;;;;22.55;92.24;100812.48;1721427;82;21015;-84
2022/05/13 07:42:52;;;;;;;6.95;3.75;;;;;;;22.62;92.88;100820.00;1721627;83;21031;-84
2022/05/13 07:45:20;;;;;;;5.65;3.30;;;;;;;22.64;86.87;100817.95;1721309;83;21137;-84
2022/05/13 07:47:47;;;;;;;6.08;3.83;;;;;;;22.66;92.36;100811.96;1721795;82;21063;-85
2022/05/13 07:50:16;;;;;;;5.47;3.22;;;;;;;22.82;90.46;100816.69;1721181;83;21521;-84
2022/05/13 07:52:44;;;;;;;4.10;3.52;;;;;;;22.95;97.49;100811.50;1721736;83;21111;-84
2022/05/13 07:55:15;;;;;;;3.98;3.65;;;;;;;23.05;89.50;100813.81;1710526;83;21145;-83
2022/05/13 07:57:45;;;;;;;9.33;3.67;;;;;;;23.13;87.72;100813.66;1713402;83;21246;-85
2022/05/13 08:00:25;;;;;;;4.37;3.45;;;;;;;23.18;89.54;100806.48;1689809;83;21200;-84
2022/05/13 08:02:57;;;;;;;6.83;3.30;;;;;;;23.20;89.42;100822.21;1635299;86;21052;-83
2022/05/13 08:05:30;;;;;;;6.20;3.22;;;;;;;23.19;88.85;100813.92;1664333;85;21058;-84
2022/05/13 08:08:14;;;;;;;5.75;3.80;;;;;;;23.20;97.05;100824.34;1721613;82;21027;-84
2022/05/13 08:10:46;;;;;;;5.00;3.65;;;;;;;23.28;88.10;100818.89;1720260;82;21191;-85
2022/05/13 08:13:23;;;;;;;9.43;3.98;;;;;;;23.38;92.13;100816.39;1710807;82;21043;-84
2022/05/13 08:15:52;;;;;;;7.15;3.50;;;;;;;23.46;90.62;100810.43;1689607;82;21082;-87
2022/05/13 08:18:22;;;;;;;8.33;3.58;;;;;;;23.55;83.51;100803.10;1687285;83;21055;-86
2022/05/13 08:20:52;;;;;;;3.50;3.20;;;;;;;23.56;82.31;100799.44;1697857;83;21211;-86
2022/05/13 08:23:26;;;;;;;6.17;3.65;;;;;;;23.53;86.82;100788.38;1719032;82;21159;-87
2022/05/13 08:25:54;;;;;;;6.92;3.55;;;;;;;23.54;80.77;100787.37;1720505;82;21493;-85
2022/05/13 08:28:25;;;;;;;6.20;3.70;;;;;;;23.61;87.97;100789.55;1719510;83;21031;-84
2022/05/13 08:30:55;;;;;;;7.30;3.90;;;;;;;23.72;81.80;100776.19;1715042;82;21047;-88
2022/05/13 08:33:25;;;;;;;;;;;;;;;23.75;86.56;100779.80;1669874;85;21052;-86
2022/05/13 08:35:57;;;;;;;6.17;3.83;;;;;;;23.77;83.95;100775.91;1644825;86;21266;-85
2022/05/13 08:38:30;;;;;;;7.87;3.90;;;;;;;23.79;80.49;100777.87;1656363;86;21000;-84
2022/05/13 08:41:12;;;;;;;10.23;4.12;;;;;;;23.83;83.07;100779.62;1646864;85;21051;-84
2022/05/13 08:43:53;;;;;;;3.80;3.40;;;;;;;23.93;77.24;100777.41;1650796;86;21067;-87
2022/05/13 08:46:48;;;;;;;4.05;3.45;;;;;;;24.14;82.30;100778.30;1656514;84;26692;-84
2022/05/13 08:49:24;;;;;;;9.48;4.22;;;;;;;24.38;83.43;100772.90;1636336;85;21139;-83
2022/05/13 08:55:31;;;;;;;5.75;4.00;;;;;;;24.33;73.90;100778.52;1646744;86;21086;-88
2022/05/13 08:58:06;;;;;;;4.45;4.03;;;;;;;23.94;73.34;100782.23;1639254;86;21069;-83
2022/05/13 09:00:43;;;;;;;10.03;3.92;;;;;;;23.77;74.47;100771.09;1707031;82;21130;-85
2022/05/13 09:03:34;;;;;;;8.53;3.87;;;;;;;23.76;78.80;100759.64;1710537;82;22069;-85
2022/05/13 09:06:09;;;;;;;;;;;;;;;23.81;78.70;100768.84;1688129;84;21070;-85
2022/05/13 09:08:37;;;;;;;6.87;4.15;;;;;;;23.87;76.41;100768.08;1705540;83;20169;-88
2022/05/13 09:11:31;;;;;;;7.00;3.62;;;;;;;24.06;79.07;100765.99;1627555;84;21225;-86
2022/05/13 09:14:04;;;;;;;9.03;4.12;;;;;;;24.26;85.00;100771.88;1701335;83;21114;-91
2022/05/13 09:16:41;;;;;;;6.35;4.08;;;;;;;24.24;76.89;100773.91;1685858;84;21559;-86
2022/05/13 09:19:22;;;;;;;8.83;4.47;;;;;;;24.11;81.83;100765.39;1689074;84;21026;-88
2022/05/13 09:21:49;;;;;;;7.67;4.05;;;;;;;24.04;81.15;100770.69;1681021;84;21012;-86
2022/05/13 09:24:17;;;;;;;7.45;4.28;;;;;;;23.87;81.07;100774.20;1691354;84;21047;-86
2022/05/13 09:26:45;;;;;;;9.90;4.30;;;;;;;23.63;87.34;100771.05;1679934;84;21057;-85
2022/05/13 09:29:17;;;;;;;6.55;4.08;;;;;;;23.40;88.44;100779.83;1678715;84;21859;-87
2022/05/13 09:32:04;;;;;;;8.68;4.17;;;;;;;23.21;92.53;100780.84;1683574;84;21060;-84
2022/05/13 09:34:50;;;;;;;7.72;4.42;;;;;;;23.23;96.41;100779.34;1681530;84;21567;-85
2022/05/13 09:37:23;;;;;;;10.72;4.45;;;;;;;23.42;88.90;100766.66;1677145;83;21110;-85
2022/05/13 09:40:13;;;;;;;9.05;4.00;;;;;;;23.63;99.45;100768.39;1673167;84;21047;-88
2022/05/13 09:42:47;;;;;;;16.43;8.43;;;;;;;23.83;93.35;100765.00;1688132;83;21295;-84
2022/05/13 09:45:30;;;;;;;8.15;4.50;;;;;;;23.93;93.24;100773.42;1672244;84;21158;-84
2022/05/13 09:48:15;;;;;;;12.23;5.85;;;;;;;23.80;78.68;100773.36;1659980;84;21080;-85
2022/05/13 09:50:55;;;;;;;16.45;7.28;;;;;;;23.44;76.93;100776.58;1688695;84;21083;-88
2022/05/13 09:53:28;;;;;;;9.28;5.22;;;;;;;23.41;88.22;100785.45;1681527;84;21897;-85
2022/05/13 09:56:02;;;;;;;14.75;4.55;;;;;;;23.72;82.05;100776.19;1684717;83;21869;-85
2022/05/13 09:58:38;;;;;;;13.90;4.95;;;;;;;24.05;80.26;100774.98;1685734;84;21111;-85
2022/05/13 10:01:13;;;;;;;11.80;6.03;;;;;;;24.31;82.20;100775.27;1668504;84;21080;-84
2022/05/13 10:03:48;;;;;;;16.57;5.28;;;;;;;24.50;72.25;100778.44;1685102;84;21057;-85
2022/05/13 10:06:23;;;;;;;12.95;5.30;;;;;;;24.64;72.49;100776.60;1681932;84;21055;-84
2022/05/13 10:14:46;;;;;;;8.25;5.08;;;;;;;24.92;67.24;100774.25;1686415;83;21011;-86
2022/05/13 10:17:22;;;;;;;9.20;4.97;;;;;;;24.95;66.15;100777.03;1685701;84;20959;-84
2022/05/13 10:19:54;;;;;;;6.90;4.22;;;;;;;24.98;63.57;100767.28;1668928;84;21067;-84
2022/05/13 10:22:45;;;;;;;16.93;5.45;;;;;;;25.08;67.74;100762.35;1677226;84;21939;-85
2022/05/13 10:25:28;;;;;;;11.20;4.90;;;;;;;25.15;63.66;100766.34;1688794;83;21067;-85
2022/05/13 10:28:07;;;;;;;9.03;4.72;;;;;;;25.07;68.46;100766.56;1671132;84;21075;-85
2022/05/13 10:31:14;;;;;;;10.38;4.67;;;;;;;24.97;65.48;100766.97;1679801;84;21042;-85
2022/05/13 10:34:02;;;;;;;10.72;4.92;;;;;;;24.84;64.28;100765.14;1655992;85;21077;-84
2022/05/13 10:36:58;;;;;;;15.88;5.30;;;;;;;24.72;66.78;100755.63;1663588;84;21117;-85
2022/05/13 10:39:46;;;;;;;12.37;5.05;;;;;;;24.67;70.09;100768.75;1648154;84;21543;-84
2022/05/13 10:42:43;;;;;;;9.38;4.97;;;;;;;24.68;67.01;100755.22;1683682;83;21613;-85
2022/05/13 10:45:21;;;;;;;9.65;5.58;;;;;;;24.51;69.70;100756.65;1653880;84;21082;-84
2022/05/13 10:48:17;;;;;;;8.78;5.25;;;;;;;24.40;68.79;100759.37;1685075;84;21064;-84
2022/05/13 10:51:03;;;;;;;12.28;4.97;;;;;;;24.46;69.18;100759.92;1689223;84;21423;-85
2022/05/13 10:53:59;;;;;;;10.10;5.25;;;;;;;24.55;65.98;100753.38;1676676;84;21002;-86
2022/05/13 10:57:04;;;;;;;11.22;5.33;;;;;;;24.45;68.62;100750.30;1683601;83;21359;-85
2022/05/13 10:59:50;;;;;;;10.00;4.65;;;;;;;24.42;71.48;100761.34;1673518;83;21042;-86
2022/05/13 11:02:58;;;;;;;14.03;5.28;;;;;;;24.61;73.99;100747.72;1682076;84;20994;-85
2022/05/13 11:05:47;;;;;;;11.63;5.25;;;;;;;24.64;69.36;100752.64;1681723;83;21225;-84
2022/05/13 11:08:40;;;;;;;16.32;5.00;;;;;;;24.67;68.53;100752.28;1687351;83;21074;-85
2022/05/13 11:11:41;;;;;;;13.25;5.25;;;;;;;24.84;67.12;100745.17;1679754;83;21034;-85
2022/05/13 11:14:42;;;;;;;7.62;4.90;;;;;;;24.88;66.70;100763.72;1664096;84;21054;-85
2022/05/13 11:17:28;;;;;;;10.13;5.25;;;;;;;24.71;62.19;100748.69;1669451;84;21034;-87
2022/05/13 11:20:38;;;;;;;10.58;5.35;;;;;;;24.52;62.42;100743.62;1701910;83;21792;-84
2022/05/13 11:23:32;;;;;;;7.95;4.70;;;;;;;24.32;64.78;100749.77;1683970;84;21101;-84
2022/05/13 11:26:14;;;;;;;10.65;4.92;;;;;;;24.29;64.86;100747.51;1701541;82;21548;-84
2022/05/13 11:29:00;;;;;;;11.08;5.08;;;;;;;24.48;63.32;100738.42;1718386;82;21038;-85
2022/05/13 11:31:40;;;;;;;19.05;5.42;;;;;;;24.58;64.40;100734.31;1699587;83;21072;-84
2022/05/13 11:34:36;;;;;;;14.47;5.20;;;;;;;24.58;59.00;100740.16;1699872;83;21253;-85
2022/05/13 11:37:15;;;;;;;8.08;4.70;;;;;;;24.62;61.24;100741.38;1698421;82;21097;-83
2022/05/13 11:40:24;;;;;;;15.08;5.42;;;;;;;24.80;59.10;100738.11;1700951;82;21588;-84
2022/05/13 11:43:33;;;;;;;14.15;4.30;;;;;;;24.92;56.95;100736.96;1676310;83;21187;-84
2022/05/13 11:46:39;;;;;;;15.13;4.53;;;;;;;24.79;55.07;100747.64;1699469;83;20999;-84
2022/05/13 11:49:33;;;;;;;15.43;3.92;;;;;;;24.65;51.91;100760.94;1698749;82;21231;-85
2022/05/13 11:52:16;;;;;;;13.65;4.25;;;;;;;24.61;55.07;100758.89;1690530;84;21031;-84
2022/05/13 11:54:45;;;;;;;11.68;3.80;;;;;;;24.54;54.81;100749.56;1682053;82;21551;-84
2022/05/13 11:57:24;;;;;;;15.68;3.60;;;;;;;24.52;54.77;100740.47;1693348;82;21038;-84
2022/05/13 12:00:01;;;;;;;7.67;2.58;;;;;;;24.61;51.80;100765.55;1698312;82;21038;-86
2022/05/13 12:02:56;;;;;;;9.38;2.60;;;;;;;24.57;45.36;100765.14;1701795;82;21486;-84
2022/05/13 12:05:33;;;;;;;9.75;2.80;;;;;;;24.40;41.81;100764.21;1695465;82;21026;-87
2022/05/13 12:08:07;;;;;;;10.32;2.65;;;;;;;24.22;41.27;100747.52;1703868;82;21161;-84
2022/05/13 12:11:05;;;;;;;11.35;2.83;;;;;;;24.23;43.28;100753.16;1697232;83;21040;-84
2022/05/13 12:13:49;;;;;;;8.03;2.60;;;;;;;24.31;42.62;100756.63;1697428;83;21545;-85
2022/05/13 12:16:54;;;;;;;5.60;1.87;;;;;;;24.33;40.95;100755.90;1694215;83;21982;-84
2022/05/13 12:19:51;;;;;;;5.92;1.95;;;;;;;24.33;36.92;100756.73;1623787;86;21101;-84
2022/05/13 12:22:54;;;;;;;8.60;2.05;;;;;;;24.29;36.52;100746.70;1658292;85;21080;-85
2022/05/13 12:25:36;;;;;;;5.87;2.10;;;;;;;24.22;38.74;100758.16;1664678;84;21023;-84
2022/05/13 12:28:11;;;;;;;14.83;2.05;;;;;;;24.20;37.05;100757.53;1644250;84;21062;-85
2022/05/13 12:30:42;;;;;;;6.20;1.77;;;;;;;24.12;34.67;100747.09;1661846;85;21857;-85
2022/05/13 12:33:24;;;;;;;7.35;1.65;;;;;;;23.99;33.51;100760.36;1659482;85;21596;-85
2022/05/13 12:39:21;;;;;;;5.62;1.67;;;;;;;23.76;34.29;100756.16;1648932;84;21102;-85
2022/05/13 12:41:54;;;;;;;;;;;;;;;23.81;32.33;100739.11;1603347;87;21137;-85
2022/05/13 12:44:34;;;;;;;5.47;1.32;;;;;;;23.74;32.08;100744.92;1595693;89;21236;-85
2022/05/13 12:47:20;;;;;;;7.08;1.77;;;;;;;23.71;33.32;100759.93;1619417;85;22199;-84
2022/05/13 12:49:55;;;;;;;3.27;1.50;;;;;;;23.74;32.83;100751.56;1667498;84;21458;-84